A- A+ FrançaisEnglishEspañol中国

le plus proche LFBT Tarbes-Lourdes-PyrénéesLFTW Nimes-Garons LFLN St-Yan LFGN Paray-Le-Monial

manche à air

La météo aéronautique pour les pilotes, la préparation du vol avec les METAR (METeorological Aerodrome Report, message d'observation des conditions météorologiques pour l'aviation) et Les TAF (Terminal Aerodrome Forecast : message de prévision à court terme des conditions météorologiques pour l'aviation). Et les autres ressources comme les VAC (Visual Approch Chart) et les NOTAM (Notice To Airman) pour préprer les vols.

Aéroport Sundsvall-Harnosand (Suède) / OACI ESNN/ IATA SDL

L'altitude de l'aéroport Sundsvall-Harnosand est de 5 m=16 ft. Il est situé à proximité de Sundsvall Härnösand (Suède). La météo générale à 5 jours est disponible pour Edsgården situé à 8.9 km.

METAR de l'aéroport Sundsvall-Harnosand - ESNN

ESNN 151420Z 34002KT CAVOK M04/M04 Q1025 R16/19//51

Décodage du METAR de l'aéroport Sundsvall-Harnosand (SE)

METAR émis par ESNN le vendredi 15 novembre 2019 à 14:20 heure TU. Attention ce METAR est obsolète car il a été émis il y a 4 heure et 28 minutes.

La visibilité est de supérieure à 10 km=supérieure à 6.2 sm.

La température est de -4°C=25 °F et le point rosée est de -4°C=25 °F . Ce qui correspond à 100% d'humidité relative.

Le QNH est de 1025 hPa=30.27 inHg

Vent de 2 kt=4 km/h, orienté à 340°.

Pas de nuages.

R16/19//51

TAF de l'aéroport Sundsvall-Harnosand - ESNN

ESNN 151130Z 1512/1521 VRB02KT CAVOK PROB40 1512/1518 BKN012 PROB40 1518/1521 2000 BCFG

ESNN 151130Z 1512/1521 VRB02KT visibilité supérieure à 10km, aucun nuage à une hauteur inférieure à 5000 ft ou sous l'altitude minimale de secteur et aucun cumulonimbus ou cumulus bourgeonnant, quelle que soit leur altitude probabilité de 40% d'avoir 1512/1518 couverture nuageuse fragmentée à 012 probabilité de 40% d'avoir 1518/1521 2000 BCFG

Aéroport à proximité de Sundsvall-Harnosand

Météo générale à 5 jours à Edsgården (8.9 km)ESNK Aéroport Kramfors (60 km)ESNO Aéroport Ornskoldsvik (125 km)ESUM Aéroport Mohed (141 km)ESNY Aéroport Soderhamn (142 km)ESNM Aéroport Optand (150 km)ESND Aéroport Sveg (165 km)

Vue aérienne de l'aéroport Sundsvall-Harnosand

NOTAM de l'aéroport Sundsvall-Harnosand

Les NOTAM sont fournis sans aucune garantie de leur actualité. Le pilote est le seul responsable de la vérification de sa validité avant de l'utiliser opérationnellement pour préparer un vol ou l'utiliser lors de sa navigation.

Pas de NOTAM

Sources des données